sensor_id;sensor_type;location;lat;lon;timestamp;P1;durP1;ratioP1;P2;durP2;ratioP2
1991;SDS011;997;48.448;8.924;2024-03-07T00:00:08;34.93;;;28.77;;
1991;SDS011;997;48.448;8.924;2024-03-07T00:02:45;31.43;;;26.77;;
1991;SDS011;997;48.448;8.924;2024-03-07T00:05:15;36.30;;;28.33;;
1991;SDS011;997;48.448;8.924;2024-03-07T00:07:44;35.60;;;26.60;;
1991;SDS011;997;48.448;8.924;2024-03-07T00:10:10;30.37;;;26.47;;
1991;SDS011;997;48.448;8.924;2024-03-07T00:12:36;31.53;;;27.40;;
1991;SDS011;997;48.448;8.924;2024-03-07T00:15:04;31.80;;;24.27;;
1991;SDS011;997;48.448;8.924;2024-03-07T00:17:33;36.40;;;27.67;;
1991;SDS011;997;48.448;8.924;2024-03-07T00:19:59;32.37;;;26.30;;
1991;SDS011;997;48.448;8.924;2024-03-07T00:22:25;32.23;;;25.60;;
1991;SDS011;997;48.448;8.924;2024-03-07T00:24:54;29.10;;;25.40;;
1991;SDS011;997;48.448;8.924;2024-03-07T00:27:20;38.00;;;27.33;;
1991;SDS011;997;48.448;8.924;2024-03-07T00:29:47;31.10;;;26.53;;
1991;SDS011;997;48.448;8.924;2024-03-07T00:32:18;37.87;;;29.73;;
1991;SDS011;997;48.448;8.924;2024-03-07T00:34:44;43.97;;;30.20;;
1991;SDS011;997;48.448;8.924;2024-03-07T00:37:10;36.10;;;30.10;;
1991;SDS011;997;48.448;8.924;2024-03-07T00:39:35;38.30;;;28.57;;
1991;SDS011;997;48.448;8.924;2024-03-07T00:42:01;41.83;;;29.57;;
1991;SDS011;997;48.448;8.924;2024-03-07T00:44:27;29.10;;;25.33;;
1991;SDS011;997;48.448;8.924;2024-03-07T00:46:52;36.60;;;30.33;;
1991;SDS011;997;48.448;8.924;2024-03-07T00:49:18;40.50;;;32.30;;
1991;SDS011;997;48.448;8.924;2024-03-07T00:51:43;38.07;;;31.10;;
1991;SDS011;997;48.448;8.924;2024-03-07T00:54:09;39.70;;;30.83;;
1991;SDS011;997;48.448;8.924;2024-03-07T00:56:37;40.70;;;31.17;;
1991;SDS011;997;48.448;8.924;2024-03-07T00:59:04;32.70;;;29.10;;
1991;SDS011;997;48.448;8.924;2024-03-07T01:01:30;40.50;;;31.90;;
1991;SDS011;997;48.448;8.924;2024-03-07T01:03:57;46.97;;;32.20;;
1991;SDS011;997;48.448;8.924;2024-03-07T01:06:23;43.80;;;31.17;;
1991;SDS011;997;48.448;8.924;2024-03-07T01:08:49;44.70;;;32.53;;
1991;SDS011;997;48.448;8.924;2024-03-07T01:11:15;41.60;;;31.10;;
1991;SDS011;997;48.448;8.924;2024-03-07T01:13:41;41.53;;;30.10;;
1991;SDS011;997;48.448;8.924;2024-03-07T01:16:07;38.17;;;30.83;;
1991;SDS011;997;48.448;8.924;2024-03-07T01:18:33;39.30;;;33.40;;
1991;SDS011;997;48.448;8.924;2024-03-07T01:20:59;41.23;;;30.70;;
1991;SDS011;997;48.448;8.924;2024-03-07T01:23:25;46.00;;;33.87;;
1991;SDS011;997;48.448;8.924;2024-03-07T01:25:50;42.13;;;32.53;;
1991;SDS011;997;48.448;8.924;2024-03-07T01:28:16;41.00;;;31.03;;
1991;SDS011;997;48.448;8.924;2024-03-07T01:30:43;39.00;;;29.43;;
1991;SDS011;997;48.448;8.924;2024-03-07T01:33:09;40.60;;;31.77;;
1991;SDS011;997;48.448;8.924;2024-03-07T01:35:34;40.80;;;31.40;;
1991;SDS011;997;48.448;8.924;2024-03-07T01:38:00;42.83;;;31.27;;
1991;SDS011;997;48.448;8.924;2024-03-07T01:40:28;42.10;;;31.50;;
1991;SDS011;997;48.448;8.924;2024-03-07T01:42:53;41.17;;;30.97;;
1991;SDS011;997;48.448;8.924;2024-03-07T01:45:19;38.10;;;30.60;;
1991;SDS011;997;48.448;8.924;2024-03-07T01:47:44;40.37;;;33.17;;
1991;SDS011;997;48.448;8.924;2024-03-07T01:50:10;46.40;;;32.10;;
1991;SDS011;997;48.448;8.924;2024-03-07T01:52:39;44.13;;;31.57;;
1991;SDS011;997;48.448;8.924;2024-03-07T01:55:06;39.23;;;32.23;;
1991;SDS011;997;48.448;8.924;2024-03-07T01:57:32;38.80;;;29.20;;
1991;SDS011;997;48.448;8.924;2024-03-07T01:59:58;42.23;;;33.70;;
1991;SDS011;997;48.448;8.924;2024-03-07T02:02:28;41.10;;;30.93;;
1991;SDS011;997;48.448;8.924;2024-03-07T02:04:54;40.50;;;30.97;;
1991;SDS011;997;48.448;8.924;2024-03-07T02:07:20;38.20;;;29.90;;
1991;SDS011;997;48.448;8.924;2024-03-07T02:09:46;42.80;;;32.13;;
1991;SDS011;997;48.448;8.924;2024-03-07T02:12:11;41.70;;;29.17;;
1991;SDS011;997;48.448;8.924;2024-03-07T02:14:37;40.90;;;31.10;;
1991;SDS011;997;48.448;8.924;2024-03-07T02:17:02;40.67;;;30.40;;
1991;SDS011;997;48.448;8.924;2024-03-07T02:19:29;44.53;;;32.70;;
1991;SDS011;997;48.448;8.924;2024-03-07T02:21:57;39.43;;;33.53;;
1991;SDS011;997;48.448;8.924;2024-03-07T02:24:24;36.20;;;30.27;;
1991;SDS011;997;48.448;8.924;2024-03-07T02:26:49;36.80;;;31.47;;
1991;SDS011;997;48.448;8.924;2024-03-07T02:29:15;35.50;;;28.07;;
1991;SDS011;997;48.448;8.924;2024-03-07T02:31:40;44.83;;;31.67;;
1991;SDS011;997;48.448;8.924;2024-03-07T02:34:06;38.57;;;32.20;;
1991;SDS011;997;48.448;8.924;2024-03-07T02:36:33;36.80;;;30.50;;
1991;SDS011;997;48.448;8.924;2024-03-07T02:38:59;38.40;;;29.97;;
1991;SDS011;997;48.448;8.924;2024-03-07T02:41:25;41.50;;;32.53;;
1991;SDS011;997;48.448;8.924;2024-03-07T02:43:51;41.63;;;31.57;;
1991;SDS011;997;48.448;8.924;2024-03-07T02:46:17;41.13;;;33.27;;
1991;SDS011;997;48.448;8.924;2024-03-07T02:48:42;44.30;;;33.87;;
1991;SDS011;997;48.448;8.924;2024-03-07T02:51:08;44.83;;;32.70;;
1991;SDS011;997;48.448;8.924;2024-03-07T02:53:34;46.03;;;33.40;;
1991;SDS011;997;48.448;8.924;2024-03-07T02:56:00;45.33;;;35.83;;
1991;SDS011;997;48.448;8.924;2024-03-07T02:58:25;43.70;;;33.67;;
1991;SDS011;997;48.448;8.924;2024-03-07T03:00:57;43.50;;;34.60;;
1991;SDS011;997;48.448;8.924;2024-03-07T03:03:28;45.20;;;33.30;;
1991;SDS011;997;48.448;8.924;2024-03-07T03:05:56;46.80;;;34.37;;
1991;SDS011;997;48.448;8.924;2024-03-07T03:08:22;47.20;;;36.07;;
1991;SDS011;997;48.448;8.924;2024-03-07T03:10:48;45.87;;;35.10;;
1991;SDS011;997;48.448;8.924;2024-03-07T03:13:16;45.97;;;36.60;;
1991;SDS011;997;48.448;8.924;2024-03-07T03:15:42;41.80;;;33.23;;
1991;SDS011;997;48.448;8.924;2024-03-07T03:18:08;45.40;;;34.27;;
1991;SDS011;997;48.448;8.924;2024-03-07T03:20:34;46.67;;;38.47;;
1991;SDS011;997;48.448;8.924;2024-03-07T03:23:03;48.03;;;35.43;;
1991;SDS011;997;48.448;8.924;2024-03-07T03:25:30;46.50;;;36.87;;
1991;SDS011;997;48.448;8.924;2024-03-07T03:27:59;42.93;;;34.87;;
1991;SDS011;997;48.448;8.924;2024-03-07T03:30:26;56.80;;;37.90;;
1991;SDS011;997;48.448;8.924;2024-03-07T03:32:51;51.87;;;36.63;;
1991;SDS011;997;48.448;8.924;2024-03-07T03:35:17;46.73;;;38.03;;
1991;SDS011;997;48.448;8.924;2024-03-07T03:37:43;45.83;;;34.67;;
1991;SDS011;997;48.448;8.924;2024-03-07T03:40:09;45.17;;;36.33;;
1991;SDS011;997;48.448;8.924;2024-03-07T03:42:39;43.90;;;34.90;;
1991;SDS011;997;48.448;8.924;2024-03-07T03:45:06;48.83;;;37.40;;
1991;SDS011;997;48.448;8.924;2024-03-07T03:47:36;48.97;;;37.63;;
1991;SDS011;997;48.448;8.924;2024-03-07T03:50:05;43.77;;;34.40;;
1991;SDS011;997;48.448;8.924;2024-03-07T03:52:32;47.67;;;37.60;;
1991;SDS011;997;48.448;8.924;2024-03-07T03:54:58;48.70;;;38.90;;
1991;SDS011;997;48.448;8.924;2024-03-07T03:57:27;57.33;;;44.37;;
1991;SDS011;997;48.448;8.924;2024-03-07T03:59:54;49.93;;;37.50;;
1991;SDS011;997;48.448;8.924;2024-03-07T04:02:21;47.33;;;35.77;;
1991;SDS011;997;48.448;8.924;2024-03-07T04:04:47;46.17;;;36.60;;
1991;SDS011;997;48.448;8.924;2024-03-07T04:07:14;49.20;;;37.73;;
1991;SDS011;997;48.448;8.924;2024-03-07T04:09:43;55.03;;;39.87;;
1991;SDS011;997;48.448;8.924;2024-03-07T04:12:13;52.30;;;36.87;;
1991;SDS011;997;48.448;8.924;2024-03-07T04:14:42;48.80;;;39.73;;
1991;SDS011;997;48.448;8.924;2024-03-07T04:17:08;45.53;;;35.37;;
1991;SDS011;997;48.448;8.924;2024-03-07T04:19:37;49.60;;;37.83;;
1991;SDS011;997;48.448;8.924;2024-03-07T04:22:04;44.17;;;35.53;;
1991;SDS011;997;48.448;8.924;2024-03-07T04:24:30;50.27;;;36.60;;
1991;SDS011;997;48.448;8.924;2024-03-07T04:26:58;45.10;;;36.40;;
1991;SDS011;997;48.448;8.924;2024-03-07T04:29:24;50.13;;;36.20;;
1991;SDS011;997;48.448;8.924;2024-03-07T04:31:50;45.77;;;34.80;;
1991;SDS011;997;48.448;8.924;2024-03-07T04:34:16;47.73;;;36.60;;
1991;SDS011;997;48.448;8.924;2024-03-07T04:36:41;43.53;;;35.83;;
1991;SDS011;997;48.448;8.924;2024-03-07T04:39:07;44.67;;;35.57;;
1991;SDS011;997;48.448;8.924;2024-03-07T04:41:39;49.70;;;36.83;;
1991;SDS011;997;48.448;8.924;2024-03-07T04:44:05;54.47;;;39.93;;
1991;SDS011;997;48.448;8.924;2024-03-07T04:46:30;47.57;;;35.70;;
1991;SDS011;997;48.448;8.924;2024-03-07T04:48:56;49.77;;;36.07;;
1991;SDS011;997;48.448;8.924;2024-03-07T04:51:22;44.70;;;36.07;;
1991;SDS011;997;48.448;8.924;2024-03-07T04:53:47;56.67;;;39.33;;
1991;SDS011;997;48.448;8.924;2024-03-07T04:56:13;50.10;;;37.23;;
1991;SDS011;997;48.448;8.924;2024-03-07T04:58:39;43.77;;;36.13;;
1991;SDS011;997;48.448;8.924;2024-03-07T05:01:05;43.30;;;34.67;;
1991;SDS011;997;48.448;8.924;2024-03-07T05:03:30;50.97;;;36.50;;
1991;SDS011;997;48.448;8.924;2024-03-07T05:05:57;46.20;;;36.30;;
1991;SDS011;997;48.448;8.924;2024-03-07T05:08:22;45.30;;;36.73;;
1991;SDS011;997;48.448;8.924;2024-03-07T05:10:48;47.73;;;34.60;;
1991;SDS011;997;48.448;8.924;2024-03-07T05:13:13;44.70;;;34.23;;
1991;SDS011;997;48.448;8.924;2024-03-07T05:15:39;49.60;;;36.93;;
1991;SDS011;997;48.448;8.924;2024-03-07T05:18:05;48.00;;;35.30;;
1991;SDS011;997;48.448;8.924;2024-03-07T05:20:32;53.70;;;37.50;;
1991;SDS011;997;48.448;8.924;2024-03-07T05:22:57;50.70;;;35.57;;
1991;SDS011;997;48.448;8.924;2024-03-07T05:25:24;43.63;;;37.53;;
1991;SDS011;997;48.448;8.924;2024-03-07T05:27:49;49.40;;;37.67;;
1991;SDS011;997;48.448;8.924;2024-03-07T05:30:16;46.67;;;37.37;;
1991;SDS011;997;48.448;8.924;2024-03-07T05:32:42;51.03;;;38.23;;
1991;SDS011;997;48.448;8.924;2024-03-07T05:35:08;52.40;;;38.23;;
1991;SDS011;997;48.448;8.924;2024-03-07T05:37:36;44.03;;;37.93;;
1991;SDS011;997;48.448;8.924;2024-03-07T05:40:01;53.10;;;37.40;;
1991;SDS011;997;48.448;8.924;2024-03-07T05:42:28;42.60;;;35.10;;
1991;SDS011;997;48.448;8.924;2024-03-07T05:44:54;48.07;;;37.27;;
1991;SDS011;997;48.448;8.924;2024-03-07T05:47:20;54.67;;;39.33;;
1991;SDS011;997;48.448;8.924;2024-03-07T05:49:46;47.50;;;36.17;;
1991;SDS011;997;48.448;8.924;2024-03-07T05:52:12;51.60;;;38.57;;
1991;SDS011;997;48.448;8.924;2024-03-07T05:54:37;62.73;;;43.97;;
1991;SDS011;997;48.448;8.924;2024-03-07T05:57:03;59.53;;;43.93;;
1991;SDS011;997;48.448;8.924;2024-03-07T05:59:31;47.17;;;37.73;;
1991;SDS011;997;48.448;8.924;2024-03-07T06:01:57;47.37;;;35.70;;
1991;SDS011;997;48.448;8.924;2024-03-07T06:04:23;51.70;;;36.53;;
1991;SDS011;997;48.448;8.924;2024-03-07T06:06:49;47.80;;;38.63;;
1991;SDS011;997;48.448;8.924;2024-03-07T06:09:15;49.60;;;37.47;;
1991;SDS011;997;48.448;8.924;2024-03-07T06:11:46;50.90;;;38.40;;
1991;SDS011;997;48.448;8.924;2024-03-07T06:14:12;49.40;;;36.80;;
1991;SDS011;997;48.448;8.924;2024-03-07T06:16:39;54.00;;;38.20;;
1991;SDS011;997;48.448;8.924;2024-03-07T06:19:06;45.03;;;36.33;;
1991;SDS011;997;48.448;8.924;2024-03-07T06:21:32;49.83;;;40.03;;
1991;SDS011;997;48.448;8.924;2024-03-07T06:23:59;42.53;;;34.83;;
1991;SDS011;997;48.448;8.924;2024-03-07T06:26:26;44.60;;;36.07;;
1991;SDS011;997;48.448;8.924;2024-03-07T06:29:02;50.57;;;34.50;;
1991;SDS011;997;48.448;8.924;2024-03-07T06:31:30;52.33;;;37.40;;
1991;SDS011;997;48.448;8.924;2024-03-07T06:33:57;49.70;;;35.77;;
1991;SDS011;997;48.448;8.924;2024-03-07T06:36:23;47.30;;;36.37;;
1991;SDS011;997;48.448;8.924;2024-03-07T06:38:50;45.60;;;34.83;;
1991;SDS011;997;48.448;8.924;2024-03-07T06:41:16;48.73;;;36.70;;
1991;SDS011;997;48.448;8.924;2024-03-07T06:43:42;44.33;;;34.20;;
1991;SDS011;997;48.448;8.924;2024-03-07T06:46:09;45.60;;;34.43;;
1991;SDS011;997;48.448;8.924;2024-03-07T06:48:35;44.87;;;35.70;;
1991;SDS011;997;48.448;8.924;2024-03-07T06:51:01;46.43;;;33.80;;
1991;SDS011;997;48.448;8.924;2024-03-07T06:53:26;42.17;;;33.00;;
1991;SDS011;997;48.448;8.924;2024-03-07T06:55:54;42.13;;;31.53;;
1991;SDS011;997;48.448;8.924;2024-03-07T06:58:20;46.47;;;33.27;;
1991;SDS011;997;48.448;8.924;2024-03-07T07:00:46;46.43;;;33.67;;
1991;SDS011;997;48.448;8.924;2024-03-07T07:03:11;43.73;;;32.50;;
1991;SDS011;997;48.448;8.924;2024-03-07T07:05:39;41.17;;;31.33;;
1991;SDS011;997;48.448;8.924;2024-03-07T07:08:09;41.20;;;33.40;;
1991;SDS011;997;48.448;8.924;2024-03-07T07:10:35;41.20;;;32.27;;
1991;SDS011;997;48.448;8.924;2024-03-07T07:13:01;40.60;;;31.07;;
1991;SDS011;997;48.448;8.924;2024-03-07T07:15:29;38.77;;;32.33;;
1991;SDS011;997;48.448;8.924;2024-03-07T07:17:55;41.53;;;33.63;;
1991;SDS011;997;48.448;8.924;2024-03-07T07:20:20;39.47;;;30.37;;
1991;SDS011;997;48.448;8.924;2024-03-07T07:22:49;37.47;;;31.93;;
1991;SDS011;997;48.448;8.924;2024-03-07T07:25:14;41.93;;;34.00;;
1991;SDS011;997;48.448;8.924;2024-03-07T07:27:49;41.50;;;33.57;;
1991;SDS011;997;48.448;8.924;2024-03-07T07:30:16;39.77;;;32.30;;
1991;SDS011;997;48.448;8.924;2024-03-07T07:32:43;35.60;;;30.97;;
1991;SDS011;997;48.448;8.924;2024-03-07T07:35:09;36.60;;;31.67;;
1991;SDS011;997;48.448;8.924;2024-03-07T07:37:37;43.50;;;32.07;;
1991;SDS011;997;48.448;8.924;2024-03-07T07:40:07;38.80;;;31.47;;
1991;SDS011;997;48.448;8.924;2024-03-07T07:42:37;42.20;;;31.30;;
1991;SDS011;997;48.448;8.924;2024-03-07T07:45:04;37.33;;;29.40;;
1991;SDS011;997;48.448;8.924;2024-03-07T07:47:31;38.13;;;31.40;;
1991;SDS011;997;48.448;8.924;2024-03-07T07:49:57;37.77;;;28.67;;
1991;SDS011;997;48.448;8.924;2024-03-07T07:52:23;34.43;;;28.63;;
1991;SDS011;997;48.448;8.924;2024-03-07T07:54:48;32.23;;;27.23;;
1991;SDS011;997;48.448;8.924;2024-03-07T07:57:14;37.90;;;29.70;;
1991;SDS011;997;48.448;8.924;2024-03-07T07:59:39;41.43;;;30.30;;
1991;SDS011;997;48.448;8.924;2024-03-07T08:02:05;38.20;;;29.70;;
1991;SDS011;997;48.448;8.924;2024-03-07T08:04:31;38.77;;;29.57;;
1991;SDS011;997;48.448;8.924;2024-03-07T08:06:57;36.67;;;31.23;;
1991;SDS011;997;48.448;8.924;2024-03-07T08:09:23;34.80;;;29.53;;
1991;SDS011;997;48.448;8.924;2024-03-07T08:11:48;39.43;;;30.93;;
1991;SDS011;997;48.448;8.924;2024-03-07T08:14:15;39.53;;;32.70;;
1991;SDS011;997;48.448;8.924;2024-03-07T08:16:40;40.17;;;35.07;;
1991;SDS011;997;48.448;8.924;2024-03-07T08:19:06;43.93;;;32.37;;
1991;SDS011;997;48.448;8.924;2024-03-07T08:21:33;38.00;;;29.43;;
1991;SDS011;997;48.448;8.924;2024-03-07T08:23:59;40.03;;;31.67;;
1991;SDS011;997;48.448;8.924;2024-03-07T08:26:28;38.30;;;30.77;;
1991;SDS011;997;48.448;8.924;2024-03-07T08:28:54;42.37;;;33.90;;
1991;SDS011;997;48.448;8.924;2024-03-07T08:31:19;38.83;;;29.57;;
1991;SDS011;997;48.448;8.924;2024-03-07T08:33:45;41.87;;;29.63;;
1991;SDS011;997;48.448;8.924;2024-03-07T08:36:11;39.17;;;31.37;;
1991;SDS011;997;48.448;8.924;2024-03-07T08:38:37;37.77;;;30.60;;
1991;SDS011;997;48.448;8.924;2024-03-07T08:41:02;45.40;;;34.23;;
1991;SDS011;997;48.448;8.924;2024-03-07T08:43:28;34.80;;;28.90;;
1991;SDS011;997;48.448;8.924;2024-03-07T08:45:54;35.20;;;29.13;;
1991;SDS011;997;48.448;8.924;2024-03-07T08:48:19;35.17;;;31.30;;
1991;SDS011;997;48.448;8.924;2024-03-07T08:50:45;42.63;;;31.00;;
1991;SDS011;997;48.448;8.924;2024-03-07T08:53:10;38.93;;;30.60;;
1991;SDS011;997;48.448;8.924;2024-03-07T08:55:36;39.97;;;30.77;;
1991;SDS011;997;48.448;8.924;2024-03-07T08:58:02;37.70;;;32.10;;
1991;SDS011;997;48.448;8.924;2024-03-07T09:00:27;42.03;;;30.47;;
1991;SDS011;997;48.448;8.924;2024-03-07T09:02:53;42.70;;;30.97;;
1991;SDS011;997;48.448;8.924;2024-03-07T09:05:22;40.47;;;30.97;;
1991;SDS011;997;48.448;8.924;2024-03-07T09:07:49;43.37;;;33.80;;
1991;SDS011;997;48.448;8.924;2024-03-07T09:10:19;45.17;;;33.20;;
1991;SDS011;997;48.448;8.924;2024-03-07T09:12:48;49.10;;;36.40;;
1991;SDS011;997;48.448;8.924;2024-03-07T09:15:15;39.43;;;30.03;;
1991;SDS011;997;48.448;8.924;2024-03-07T09:17:42;42.50;;;31.30;;
1991;SDS011;997;48.448;8.924;2024-03-07T09:20:09;42.67;;;31.77;;
1991;SDS011;997;48.448;8.924;2024-03-07T09:22:39;43.83;;;32.33;;
1991;SDS011;997;48.448;8.924;2024-03-07T09:25:08;44.23;;;31.37;;
1991;SDS011;997;48.448;8.924;2024-03-07T09:27:35;38.43;;;30.03;;
1991;SDS011;997;48.448;8.924;2024-03-07T09:30:02;39.27;;;32.93;;
1991;SDS011;997;48.448;8.924;2024-03-07T09:32:28;42.30;;;32.50;;
1991;SDS011;997;48.448;8.924;2024-03-07T09:34:58;40.97;;;32.33;;
1991;SDS011;997;48.448;8.924;2024-03-07T09:37:23;45.30;;;32.63;;
1991;SDS011;997;48.448;8.924;2024-03-07T09:39:49;40.73;;;31.77;;
1991;SDS011;997;48.448;8.924;2024-03-07T09:42:15;44.50;;;32.30;;
1991;SDS011;997;48.448;8.924;2024-03-07T09:44:42;49.13;;;33.07;;
1991;SDS011;997;48.448;8.924;2024-03-07T09:47:10;41.10;;;31.40;;
1991;SDS011;997;48.448;8.924;2024-03-07T09:49:36;45.53;;;31.90;;
1991;SDS011;997;48.448;8.924;2024-03-07T09:52:08;37.57;;;30.60;;
1991;SDS011;997;48.448;8.924;2024-03-07T09:54:36;39.87;;;29.40;;
1991;SDS011;997;48.448;8.924;2024-03-07T09:57:03;42.20;;;29.17;;
1991;SDS011;997;48.448;8.924;2024-03-07T09:59:33;42.67;;;32.40;;
1991;SDS011;997;48.448;8.924;2024-03-07T10:02:04;42.00;;;32.00;;
1991;SDS011;997;48.448;8.924;2024-03-07T10:04:42;51.80;;;34.27;;
1991;SDS011;997;48.448;8.924;2024-03-07T10:07:10;47.70;;;32.33;;
1991;SDS011;997;48.448;8.924;2024-03-07T10:09:38;40.70;;;32.47;;
1991;SDS011;997;48.448;8.924;2024-03-07T10:12:05;44.47;;;32.87;;
1991;SDS011;997;48.448;8.924;2024-03-07T10:14:37;48.10;;;33.23;;
1991;SDS011;997;48.448;8.924;2024-03-07T10:17:03;44.60;;;32.83;;
1991;SDS011;997;48.448;8.924;2024-03-07T10:19:29;53.53;;;35.47;;
1991;SDS011;997;48.448;8.924;2024-03-07T10:21:55;46.40;;;33.90;;
1991;SDS011;997;48.448;8.924;2024-03-07T10:24:26;48.67;;;33.70;;
1991;SDS011;997;48.448;8.924;2024-03-07T10:26:53;47.13;;;34.97;;
1991;SDS011;997;48.448;8.924;2024-03-07T10:29:21;42.93;;;34.80;;
1991;SDS011;997;48.448;8.924;2024-03-07T10:31:48;41.13;;;33.10;;
1991;SDS011;997;48.448;8.924;2024-03-07T10:34:14;46.33;;;31.77;;
1991;SDS011;997;48.448;8.924;2024-03-07T10:36:43;44.83;;;33.13;;
1991;SDS011;997;48.448;8.924;2024-03-07T10:39:10;42.50;;;31.50;;
1991;SDS011;997;48.448;8.924;2024-03-07T10:41:47;45.83;;;32.50;;
1991;SDS011;997;48.448;8.924;2024-03-07T10:44:18;51.53;;;33.37;;
1991;SDS011;997;48.448;8.924;2024-03-07T10:46:46;45.83;;;35.00;;
1991;SDS011;997;48.448;8.924;2024-03-07T10:49:18;44.63;;;33.50;;
1991;SDS011;997;48.448;8.924;2024-03-07T10:51:48;40.37;;;30.70;;
1991;SDS011;997;48.448;8.924;2024-03-07T10:54:34;43.20;;;31.20;;
1991;SDS011;997;48.448;8.924;2024-03-07T11:00:05;40.40;;;32.37;;
1991;SDS011;997;48.448;8.924;2024-03-07T11:02:54;49.83;;;32.63;;
1991;SDS011;997;48.448;8.924;2024-03-07T11:05:21;40.50;;;30.37;;
1991;SDS011;997;48.448;8.924;2024-03-07T11:07:54;55.43;;;31.23;;
1991;SDS011;997;48.448;8.924;2024-03-07T11:10:25;47.23;;;31.90;;
1991;SDS011;997;48.448;8.924;2024-03-07T11:12:52;49.70;;;33.83;;
1991;SDS011;997;48.448;8.924;2024-03-07T11:15:18;47.90;;;32.60;;
1991;SDS011;997;48.448;8.924;2024-03-07T11:17:47;38.53;;;31.10;;
1991;SDS011;997;48.448;8.924;2024-03-07T11:20:24;37.60;;;31.37;;
1991;SDS011;997;48.448;8.924;2024-03-07T11:22:50;37.37;;;31.33;;
1991;SDS011;997;48.448;8.924;2024-03-07T11:25:19;41.67;;;30.47;;
1991;SDS011;997;48.448;8.924;2024-03-07T11:27:56;41.30;;;32.40;;
1991;SDS011;997;48.448;8.924;2024-03-07T11:30:24;43.07;;;29.73;;
1991;SDS011;997;48.448;8.924;2024-03-07T11:32:53;45.53;;;32.00;;
1991;SDS011;997;48.448;8.924;2024-03-07T11:35:42;39.80;;;32.77;;
1991;SDS011;997;48.448;8.924;2024-03-07T11:38:13;39.27;;;30.17;;
1991;SDS011;997;48.448;8.924;2024-03-07T11:43:05;41.90;;;31.30;;
1991;SDS011;997;48.448;8.924;2024-03-07T11:45:31;40.93;;;31.87;;
1991;SDS011;997;48.448;8.924;2024-03-07T11:48:05;39.13;;;29.80;;
1991;SDS011;997;48.448;8.924;2024-03-07T11:50:37;40.20;;;31.60;;
1991;SDS011;997;48.448;8.924;2024-03-07T11:53:05;39.50;;;30.47;;
1991;SDS011;997;48.448;8.924;2024-03-07T11:55:35;38.90;;;31.07;;
1991;SDS011;997;48.448;8.924;2024-03-07T11:58:17;37.57;;;31.80;;
1991;SDS011;997;48.448;8.924;2024-03-07T12:00:46;39.27;;;30.20;;
1991;SDS011;997;48.448;8.924;2024-03-07T12:03:15;47.90;;;32.47;;
1991;SDS011;997;48.448;8.924;2024-03-07T12:05:44;48.37;;;33.37;;
1991;SDS011;997;48.448;8.924;2024-03-07T12:08:10;40.20;;;33.60;;
1991;SDS011;997;48.448;8.924;2024-03-07T12:10:40;41.07;;;29.90;;
1991;SDS011;997;48.448;8.924;2024-03-07T12:13:12;40.83;;;28.77;;
1991;SDS011;997;48.448;8.924;2024-03-07T12:15:40;37.37;;;29.73;;
1991;SDS011;997;48.448;8.924;2024-03-07T12:18:07;36.63;;;27.93;;
1991;SDS011;997;48.448;8.924;2024-03-07T12:20:37;35.10;;;28.20;;
1991;SDS011;997;48.448;8.924;2024-03-07T12:23:06;38.20;;;29.00;;
1991;SDS011;997;48.448;8.924;2024-03-07T12:25:40;33.53;;;28.63;;
1991;SDS011;997;48.448;8.924;2024-03-07T12:28:11;35.50;;;28.80;;
1991;SDS011;997;48.448;8.924;2024-03-07T12:30:52;38.33;;;28.20;;
1991;SDS011;997;48.448;8.924;2024-03-07T12:33:20;37.03;;;27.90;;
1991;SDS011;997;48.448;8.924;2024-03-07T12:35:48;34.70;;;29.33;;
1991;SDS011;997;48.448;8.924;2024-03-07T12:38:15;34.93;;;28.30;;
1991;SDS011;997;48.448;8.924;2024-03-07T12:40:42;33.87;;;27.00;;
1991;SDS011;997;48.448;8.924;2024-03-07T12:43:14;30.50;;;24.57;;
1991;SDS011;997;48.448;8.924;2024-03-07T12:45:45;29.93;;;24.20;;
1991;SDS011;997;48.448;8.924;2024-03-07T12:48:16;33.10;;;26.60;;
1991;SDS011;997;48.448;8.924;2024-03-07T12:50:48;31.67;;;26.90;;
1991;SDS011;997;48.448;8.924;2024-03-07T12:53:20;34.27;;;28.53;;
1991;SDS011;997;48.448;8.924;2024-03-07T12:55:50;36.07;;;27.07;;
1991;SDS011;997;48.448;8.924;2024-03-07T12:58:17;31.97;;;26.03;;
1991;SDS011;997;48.448;8.924;2024-03-07T13:00:44;30.60;;;27.03;;
1991;SDS011;997;48.448;8.924;2024-03-07T13:03:10;36.60;;;27.13;;
1991;SDS011;997;48.448;8.924;2024-03-07T13:05:39;27.33;;;24.20;;
1991;SDS011;997;48.448;8.924;2024-03-07T13:08:07;33.10;;;26.00;;
1991;SDS011;997;48.448;8.924;2024-03-07T13:10:43;27.70;;;24.57;;
1991;SDS011;997;48.448;8.924;2024-03-07T13:13:09;30.73;;;24.77;;
1991;SDS011;997;48.448;8.924;2024-03-07T13:15:36;30.47;;;26.00;;
1991;SDS011;997;48.448;8.924;2024-03-07T13:18:07;30.57;;;23.50;;
1991;SDS011;997;48.448;8.924;2024-03-07T13:20:34;31.80;;;25.50;;
1991;SDS011;997;48.448;8.924;2024-03-07T13:23:01;30.90;;;25.80;;
1991;SDS011;997;48.448;8.924;2024-03-07T13:25:27;33.57;;;26.93;;
1991;SDS011;997;48.448;8.924;2024-03-07T13:30:38;35.50;;;27.07;;
1991;SDS011;997;48.448;8.924;2024-03-07T13:33:05;30.60;;;26.07;;
1991;SDS011;997;48.448;8.924;2024-03-07T13:35:30;36.10;;;28.00;;
1991;SDS011;997;48.448;8.924;2024-03-07T13:37:56;46.57;;;38.37;;
1991;SDS011;997;48.448;8.924;2024-03-07T13:40:26;29.33;;;25.53;;
1991;SDS011;997;48.448;8.924;2024-03-07T13:42:56;33.30;;;24.90;;
1991;SDS011;997;48.448;8.924;2024-03-07T13:45:23;31.13;;;25.50;;
1991;SDS011;997;48.448;8.924;2024-03-07T13:47:52;34.83;;;26.30;;
1991;SDS011;997;48.448;8.924;2024-03-07T13:50:20;33.20;;;27.90;;
1991;SDS011;997;48.448;8.924;2024-03-07T13:52:48;30.10;;;24.47;;
1991;SDS011;997;48.448;8.924;2024-03-07T14:12:15;30.57;;;24.23;;
1991;SDS011;997;48.448;8.924;2024-03-07T14:31:41;33.73;;;25.87;;
1991;SDS011;997;48.448;8.924;2024-03-07T14:34:17;27.97;;;24.80;;
1991;SDS011;997;48.448;8.924;2024-03-07T14:40:10;30.87;;;21.93;;
1991;SDS011;997;48.448;8.924;2024-03-07T14:42:45;29.00;;;25.83;;
1991;SDS011;997;48.448;8.924;2024-03-07T14:45:21;29.93;;;26.63;;
1991;SDS011;997;48.448;8.924;2024-03-07T14:47:50;30.57;;;27.20;;
1991;SDS011;997;48.448;8.924;2024-03-07T14:50:19;32.07;;;25.70;;
1991;SDS011;997;48.448;8.924;2024-03-07T14:52:49;37.50;;;31.20;;
1991;SDS011;997;48.448;8.924;2024-03-07T14:55:15;31.97;;;26.33;;
1991;SDS011;997;48.448;8.924;2024-03-07T14:57:44;34.70;;;29.47;;
1991;SDS011;997;48.448;8.924;2024-03-07T15:00:10;36.93;;;28.60;;
1991;SDS011;997;48.448;8.924;2024-03-07T15:02:51;36.93;;;30.10;;
1991;SDS011;997;48.448;8.924;2024-03-07T15:05:21;35.73;;;25.03;;
1991;SDS011;997;48.448;8.924;2024-03-07T15:07:49;34.83;;;26.40;;
1991;SDS011;997;48.448;8.924;2024-03-07T15:10:18;34.03;;;27.20;;
1991;SDS011;997;48.448;8.924;2024-03-07T15:12:49;37.73;;;29.07;;
1991;SDS011;997;48.448;8.924;2024-03-07T15:15:15;34.90;;;29.63;;
1991;SDS011;997;48.448;8.924;2024-03-07T15:17:41;31.43;;;26.87;;
1991;SDS011;997;48.448;8.924;2024-03-07T15:20:08;36.37;;;28.23;;
1991;SDS011;997;48.448;8.924;2024-03-07T15:22:47;37.07;;;29.60;;
1991;SDS011;997;48.448;8.924;2024-03-07T15:25:32;33.67;;;28.93;;
1991;SDS011;997;48.448;8.924;2024-03-07T15:27:59;35.83;;;28.07;;
1991;SDS011;997;48.448;8.924;2024-03-07T15:30:25;36.17;;;25.67;;
1991;SDS011;997;48.448;8.924;2024-03-07T15:33:00;30.57;;;27.27;;
1991;SDS011;997;48.448;8.924;2024-03-07T15:35:26;36.20;;;29.20;;
1991;SDS011;997;48.448;8.924;2024-03-07T15:37:52;36.07;;;28.70;;
1991;SDS011;997;48.448;8.924;2024-03-07T15:40:19;36.87;;;29.17;;
1991;SDS011;997;48.448;8.924;2024-03-07T15:42:46;37.50;;;33.23;;
1991;SDS011;997;48.448;8.924;2024-03-07T15:45:14;31.50;;;27.20;;
1991;SDS011;997;48.448;8.924;2024-03-07T15:50:17;51.30;;;40.60;;